createdAt,value
2018-07-15T00:00:16.567Z,23.10
2018-07-15T00:02:44.860Z,23.10
2018-07-15T00:05:13.136Z,23.10
2018-07-15T00:07:41.540Z,23.10
2018-07-15T00:10:09.828Z,23.10
2018-07-15T00:12:38.115Z,23.10
2018-07-15T00:15:06.767Z,23.10
2018-07-15T00:17:35.056Z,23.10
2018-07-15T00:20:03.433Z,23.10
2018-07-15T00:22:31.719Z,23.00
2018-07-15T00:25:00.050Z,23.10
2018-07-15T00:27:28.356Z,23.10
2018-07-15T00:29:56.604Z,23.10
2018-07-15T00:32:24.887Z,23.20
2018-07-15T00:34:53.136Z,23.20
2018-07-15T00:37:21.391Z,23.20
2018-07-15T00:39:49.680Z,23.20
2018-07-15T00:42:17.957Z,23.20
2018-07-15T00:44:46.233Z,23.20
2018-07-15T00:47:14.504Z,23.20
2018-07-15T00:49:42.793Z,23.10
2018-07-15T00:52:11.083Z,23.10
2018-07-15T00:54:39.347Z,23.10
2018-07-15T00:57:07.643Z,23.10
2018-07-15T00:59:35.973Z,23.20
2018-07-15T01:02:04.265Z,23.20
2018-07-15T01:04:32.531Z,23.20
2018-07-15T01:09:28.797Z,23.20
2018-07-15T01:11:57.091Z,23.20
2018-07-15T01:14:25.427Z,23.20
2018-07-15T01:16:53.699Z,23.20
2018-07-15T01:19:21.983Z,23.20
2018-07-15T01:21:50.259Z,23.10
2018-07-15T01:24:18.711Z,23.20
2018-07-15T01:26:46.990Z,23.20
2018-07-15T01:29:15.282Z,23.10
2018-07-15T01:31:43.554Z,23.10
2018-07-15T01:34:11.819Z,23.10
2018-07-15T01:36:40.080Z,23.10
2018-07-15T01:39:08.375Z,23.00
2018-07-15T01:41:36.636Z,23.10
2018-07-15T01:44:04.914Z,23.10
2018-07-15T01:46:33.201Z,23.20
2018-07-15T01:49:01.470Z,23.20
2018-07-15T01:51:29.735Z,23.30
2018-07-15T01:53:58.023Z,23.30
2018-07-15T01:56:26.322Z,23.20
2018-07-15T01:58:54.593Z,23.20
2018-07-15T02:01:22.860Z,23.20
2018-07-15T02:03:51.148Z,23.20
2018-07-15T02:06:19.428Z,23.10
2018-07-15T02:08:47.745Z,23.10
2018-07-15T02:11:16.004Z,23.10
2018-07-15T02:13:44.285Z,23.00
2018-07-15T02:16:12.796Z,23.00
2018-07-15T02:18:41.118Z,23.00
2018-07-15T02:21:09.383Z,23.00
2018-07-15T02:23:37.630Z,23.10
2018-07-15T02:26:05.932Z,23.10
2018-07-15T02:28:34.254Z,23.10
2018-07-15T02:31:02.550Z,23.10
2018-07-15T02:33:30.826Z,23.10
2018-07-15T02:35:59.083Z,23.10
2018-07-15T02:38:27.360Z,23.10
2018-07-15T02:40:55.628Z,23.10
2018-07-15T02:43:23.918Z,23.10
2018-07-15T02:45:52.168Z,23.10
2018-07-15T02:48:20.532Z,23.00
2018-07-15T02:50:48.834Z,23.10
2018-07-15T02:53:17.104Z,23.10
2018-07-15T02:55:45.393Z,23.10
2018-07-15T02:58:13.660Z,23.20
2018-07-15T03:00:41.870Z,23.10
2018-07-15T03:03:10.234Z,23.10
2018-07-15T03:05:38.566Z,23.10
2018-07-15T03:08:06.905Z,23.10
2018-07-15T03:10:35.168Z,23.10
2018-07-15T03:13:03.444Z,23.00
2018-07-15T03:15:31.693Z,23.00
2018-07-15T03:17:59.975Z,23.00
2018-07-15T03:20:28.232Z,23.00
2018-07-15T03:22:56.614Z,23.00
2018-07-15T03:25:24.884Z,23.00
2018-07-15T03:27:53.159Z,22.90
2018-07-15T03:30:21.772Z,23.00
2018-07-15T03:32:50.059Z,23.00
2018-07-15T03:35:18.312Z,23.00
2018-07-15T03:37:46.575Z,23.00
2018-07-15T03:40:14.856Z,23.10
2018-07-15T03:42:43.120Z,23.10
2018-07-15T03:45:11.388Z,23.00
2018-07-15T03:47:39.654Z,23.10
2018-07-15T03:50:07.912Z,23.00
2018-07-15T03:55:04.214Z,23.00
2018-07-15T03:57:32.544Z,23.00
2018-07-15T04:00:00.812Z,23.00
2018-07-15T04:02:29.091Z,23.00
2018-07-15T04:04:57.352Z,22.90
2018-07-15T04:07:25.628Z,22.90
2018-07-15T04:12:21.893Z,22.90
2018-07-15T04:14:50.164Z,22.80
2018-07-15T04:17:18.416Z,22.90
2018-07-15T04:19:46.684Z,22.90
2018-07-15T04:22:14.955Z,22.90
2018-07-15T04:24:43.271Z,23.00
2018-07-15T04:27:11.540Z,23.00
2018-07-15T04:29:39.796Z,23.00
2018-07-15T04:32:08.067Z,23.00
2018-07-15T04:34:36.321Z,23.00
2018-07-15T04:39:32.606Z,23.00
2018-07-15T04:42:00.939Z,23.00
2018-07-15T04:44:29.213Z,23.00
2018-07-15T04:46:57.513Z,23.00
2018-07-15T04:49:25.792Z,22.90
2018-07-15T04:51:54.072Z,23.00
2018-07-15T04:54:22.349Z,23.00
2018-07-15T04:56:50.736Z,23.00
2018-07-15T04:59:19.023Z,23.00
2018-07-15T05:01:47.300Z,23.00
2018-07-15T05:04:15.552Z,23.00
2018-07-15T05:06:44.270Z,23.00
2018-07-15T05:09:12.547Z,23.00
2018-07-15T05:11:40.804Z,23.00
2018-07-15T05:14:09.084Z,22.90
2018-07-15T05:16:37.946Z,22.90
2018-07-15T05:21:34.244Z,22.90
2018-07-15T05:24:02.544Z,23.00
2018-07-15T05:26:30.820Z,23.00
2018-07-15T05:28:59.191Z,23.00
2018-07-15T05:31:27.440Z,23.00
2018-07-15T05:33:55.712Z,23.00
2018-07-15T05:38:51.990Z,23.00
2018-07-15T05:41:20.295Z,23.00
2018-07-15T05:43:48.580Z,22.90
2018-07-15T05:46:16.859Z,22.90
2018-07-15T05:48:45.140Z,22.90
2018-07-15T05:51:13.404Z,22.90
2018-07-15T05:53:41.708Z,22.90
2018-07-15T05:56:09.964Z,22.90
2018-07-15T05:58:38.261Z,22.90
2018-07-15T06:01:06.689Z,22.90
2018-07-15T06:03:35.020Z,22.90
2018-07-15T06:06:03.280Z,22.90
2018-07-15T06:08:31.540Z,23.00
2018-07-15T06:10:59.833Z,23.00
2018-07-15T06:13:28.106Z,23.00
2018-07-15T06:15:56.398Z,23.00
2018-07-15T06:18:24.661Z,23.00
2018-07-15T06:20:53.000Z,23.00
2018-07-15T06:23:21.277Z,23.00
2018-07-15T06:25:49.629Z,23.00
2018-07-15T06:28:17.930Z,23.00
2018-07-15T06:30:46.221Z,23.00
2018-07-15T06:33:14.529Z,22.90
2018-07-15T06:35:42.804Z,22.90
2018-07-15T06:38:11.084Z,22.90
2018-07-15T06:40:39.361Z,22.90
2018-07-15T06:43:07.691Z,22.90
2018-07-15T06:45:36.001Z,22.90
2018-07-15T06:50:32.353Z,22.90
2018-07-15T06:53:00.667Z,23.00
2018-07-15T06:55:28.933Z,23.00
2018-07-15T06:57:57.231Z,23.10
2018-07-15T07:00:25.518Z,23.10
2018-07-15T07:02:53.839Z,23.10
2018-07-15T07:05:22.201Z,23.00
2018-07-15T07:10:18.573Z,23.00
2018-07-15T07:12:46.868Z,23.00
2018-07-15T07:15:15.164Z,23.00
2018-07-15T07:17:43.452Z,22.90
2018-07-15T07:20:11.764Z,22.90
2018-07-15T07:22:40.055Z,22.90
2018-07-15T07:25:08.347Z,22.90
2018-07-15T07:27:36.616Z,22.90
2018-07-15T07:30:04.900Z,22.90
2018-07-15T07:32:33.193Z,22.90
2018-07-15T07:35:01.504Z,22.90
2018-07-15T07:37:29.768Z,23.00
2018-07-15T07:39:58.036Z,23.00
2018-07-15T07:42:26.346Z,23.00
2018-07-15T07:44:54.655Z,23.00
2018-07-15T07:47:22.932Z,23.00
2018-07-15T07:49:51.211Z,23.10
2018-07-15T07:52:19.479Z,23.00
2018-07-15T07:54:47.843Z,23.00
2018-07-15T07:59:44.149Z,23.00
2018-07-15T08:02:12.420Z,22.90
2018-07-15T08:04:40.755Z,22.90
2018-07-15T08:07:09.020Z,23.00
2018-07-15T08:09:37.309Z,23.00
2018-07-15T08:12:05.611Z,23.10
2018-07-15T08:14:33.893Z,23.10
2018-07-15T08:17:02.195Z,23.10
2018-07-15T08:19:30.489Z,23.10
2018-07-15T08:21:58.747Z,23.10
2018-07-15T08:24:27.045Z,23.10
2018-07-15T08:29:23.328Z,23.00
2018-07-15T08:31:51.655Z,23.00
2018-07-15T08:34:19.948Z,22.90
2018-07-15T08:36:48.212Z,22.90
2018-07-15T08:39:16.520Z,22.90
2018-07-15T08:41:44.899Z,22.90
2018-07-15T08:44:13.159Z,22.90
2018-07-15T08:46:41.432Z,22.90
2018-07-15T08:49:09.691Z,22.90
2018-07-15T08:51:37.982Z,22.90
2018-07-15T08:54:06.364Z,23.00
2018-07-15T08:56:34.607Z,23.10
2018-07-15T08:59:02.876Z,23.10
2018-07-15T09:03:59.164Z,23.20
2018-07-15T09:06:27.451Z,23.10
2018-07-15T09:08:55.774Z,23.10
2018-07-15T09:11:24.050Z,23.00
2018-07-15T09:13:52.318Z,23.00
2018-07-15T09:18:48.590Z,23.00
2018-07-15T09:21:16.933Z,23.00
2018-07-15T09:23:45.132Z,22.90
2018-07-15T09:26:13.468Z,22.90
2018-07-15T09:28:41.847Z,22.90
2018-07-15T09:31:10.130Z,23.00
2018-07-15T09:33:38.386Z,22.90
2018-07-15T09:36:06.667Z,22.90
2018-07-15T09:38:34.964Z,22.90
2018-07-15T09:41:03.262Z,22.90
2018-07-15T09:43:31.552Z,22.90
2018-07-15T09:45:59.924Z,22.90
2018-07-15T09:48:28.208Z,23.00
2018-07-15T09:50:56.481Z,23.00
2018-07-15T09:53:24.772Z,23.10
2018-07-15T09:55:53.070Z,23.20
2018-07-15T09:58:21.363Z,23.20
2018-07-15T10:00:56.415Z,23.20
2018-07-15T10:03:25.523Z,23.20
2018-07-15T10:05:53.799Z,23.10
2018-07-15T10:08:22.599Z,23.10
2018-07-15T10:10:50.863Z,23.10
2018-07-15T10:13:19.156Z,23.10
2018-07-15T10:15:47.631Z,23.10
2018-07-15T10:18:15.993Z,23.00
2018-07-15T10:20:44.403Z,23.00
2018-07-15T10:23:12.693Z,23.00
2018-07-15T10:25:40.973Z,23.00
2018-07-15T10:28:09.246Z,23.00
2018-07-15T10:30:37.592Z,23.00
2018-07-15T10:33:05.891Z,23.00
2018-07-15T10:35:34.176Z,23.00
2018-07-15T10:40:30.462Z,23.00
2018-07-15T10:42:58.756Z,23.00
2018-07-15T10:45:27.054Z,23.10
2018-07-15T10:47:55.330Z,23.20
2018-07-15T10:50:23.613Z,23.20
2018-07-15T10:52:51.999Z,23.20
2018-07-15T10:55:20.244Z,23.20
2018-07-15T10:57:48.541Z,23.20
2018-07-15T11:00:16.835Z,23.20
2018-07-15T11:02:45.336Z,23.10
2018-07-15T11:05:13.601Z,23.10
2018-07-15T11:07:41.846Z,23.10
2018-07-15T11:10:10.132Z,23.10
2018-07-15T11:12:38.484Z,23.10
2018-07-15T11:15:06.772Z,23.10
2018-07-15T11:17:35.044Z,23.10
2018-07-15T11:20:03.393Z,23.10
2018-07-15T11:22:31.685Z,23.20
2018-07-15T11:25:00.021Z,23.20
2018-07-15T11:27:28.331Z,23.30
2018-07-15T11:29:56.609Z,23.20
2018-07-15T11:34:52.898Z,23.20
2018-07-15T11:37:21.218Z,23.20
2018-07-15T11:39:49.492Z,23.20
2018-07-15T11:42:17.779Z,23.20
2018-07-15T11:44:46.075Z,23.20
2018-07-15T11:47:14.339Z,23.20
2018-07-15T11:49:42.626Z,23.20
2018-07-15T11:52:10.895Z,23.10
2018-07-15T11:54:39.250Z,23.20
2018-07-15T11:57:07.444Z,23.20
2018-07-15T11:59:35.752Z,23.10
2018-07-15T12:02:04.080Z,23.20
2018-07-15T12:04:32.350Z,23.10
2018-07-15T12:07:00.673Z,23.10
2018-07-15T12:09:28.956Z,23.10
2018-07-15T12:11:57.227Z,23.10
2018-07-15T12:14:25.502Z,23.20
2018-07-15T12:16:53.779Z,23.30
2018-07-15T12:19:22.074Z,23.50
2018-07-15T12:21:50.369Z,23.60
2018-07-15T12:26:46.704Z,23.80
2018-07-15T12:29:14.989Z,23.90
2018-07-15T12:31:43.303Z,24.00
2018-07-15T12:34:11.589Z,24.10
2018-07-15T12:36:39.896Z,24.10
2018-07-15T12:39:08.524Z,24.10
2018-07-15T12:41:36.898Z,24.00
2018-07-15T12:44:05.192Z,24.00
2018-07-15T12:46:33.478Z,23.90
2018-07-15T12:49:01.753Z,23.80
2018-07-15T12:51:30.233Z,23.70
2018-07-15T12:53:58.509Z,23.70
2018-07-15T12:56:26.951Z,23.60
2018-07-15T12:58:55.263Z,23.60
2018-07-15T13:01:23.580Z,23.60
2018-07-15T13:03:51.863Z,23.70
2018-07-15T13:06:20.170Z,23.70
2018-07-15T13:08:48.441Z,23.80
2018-07-15T13:11:16.761Z,23.80
2018-07-15T13:13:45.049Z,23.80
2018-07-15T13:16:13.385Z,23.80
2018-07-15T13:18:41.637Z,23.80
2018-07-15T13:21:09.948Z,23.80
2018-07-15T13:23:38.213Z,23.70
2018-07-15T13:26:06.491Z,23.70
2018-07-15T13:28:34.764Z,23.70
2018-07-15T13:31:03.030Z,23.60
2018-07-15T13:33:31.355Z,23.60
2018-07-15T13:35:59.632Z,23.60
2018-07-15T13:38:27.886Z,23.60
2018-07-15T13:40:56.185Z,23.60
2018-07-15T13:43:24.478Z,23.70
2018-07-15T13:45:52.755Z,23.70
2018-07-15T13:48:21.046Z,23.70
2018-07-15T13:50:49.352Z,23.70
2018-07-15T13:53:17.636Z,23.70
2018-07-15T13:58:13.941Z,23.60
2018-07-15T14:03:10.428Z,23.50
2018-07-15T14:05:38.707Z,23.40
2018-07-15T14:08:07.005Z,23.40
2018-07-15T14:10:35.335Z,23.40
2018-07-15T14:13:03.584Z,23.40
2018-07-15T14:15:31.895Z,23.30
2018-07-15T14:18:00.184Z,23.30
2018-07-15T14:20:28.476Z,23.30
2018-07-15T14:22:56.751Z,23.30
2018-07-15T14:25:25.097Z,23.30
2018-07-15T14:30:21.424Z,23.20
2018-07-15T14:32:49.711Z,23.20
2018-07-15T14:35:17.998Z,23.20
2018-07-15T14:37:46.342Z,23.10
2018-07-15T14:40:14.585Z,23.20
2018-07-15T14:42:42.881Z,23.20
2018-07-15T14:45:11.177Z,23.20
2018-07-15T14:47:39.446Z,23.20
2018-07-15T14:50:07.751Z,23.20
2018-07-15T14:52:36.047Z,23.20
2018-07-15T14:55:04.430Z,23.20
2018-07-15T14:57:32.713Z,23.20
2018-07-15T15:00:00.999Z,23.10
2018-07-15T15:02:29.288Z,23.10
2018-07-15T15:04:57.547Z,23.10
2018-07-15T15:07:25.850Z,23.10
2018-07-15T15:09:54.128Z,23.10
2018-07-15T15:12:22.415Z,23.10
2018-07-15T15:14:50.692Z,23.10
2018-07-15T15:17:18.992Z,23.10
2018-07-15T15:19:47.260Z,23.10
2018-07-15T15:22:15.535Z,23.10
2018-07-15T15:24:43.909Z,23.20
2018-07-15T15:27:12.179Z,23.20
2018-07-15T15:29:40.445Z,23.30
2018-07-15T15:34:36.724Z,23.30
2018-07-15T15:37:05.051Z,23.20
2018-07-15T15:39:33.336Z,23.20
2018-07-15T15:42:01.840Z,23.20
2018-07-15T15:44:30.135Z,23.20
2018-07-15T15:46:58.395Z,23.20
2018-07-15T15:49:26.680Z,23.20
2018-07-15T15:51:54.974Z,23.20
2018-07-15T15:54:23.301Z,23.20
2018-07-15T15:56:51.593Z,23.20
2018-07-15T15:59:19.873Z,23.20
2018-07-15T16:04:16.212Z,23.20
2018-07-15T16:06:44.702Z,23.30
2018-07-15T16:09:12.977Z,23.30
2018-07-15T16:11:41.258Z,23.30
2018-07-15T16:14:09.559Z,23.30
2018-07-15T16:16:37.929Z,23.30
2018-07-15T16:19:06.153Z,23.20
2018-07-15T16:21:34.465Z,23.30
2018-07-15T16:26:30.818Z,23.20
2018-07-15T16:28:59.100Z,23.20
2018-07-15T16:31:27.400Z,23.10
2018-07-15T16:33:55.756Z,23.20
2018-07-15T16:36:23.980Z,23.10
2018-07-15T16:38:52.275Z,23.20
2018-07-15T16:41:20.542Z,23.30
2018-07-15T16:43:48.985Z,23.30
2018-07-15T16:46:17.262Z,23.30
2018-07-15T16:48:45.547Z,23.30
2018-07-15T16:51:13.894Z,23.30
2018-07-15T16:53:42.190Z,23.30
2018-07-15T16:56:10.568Z,23.20
2018-07-15T16:58:38.872Z,23.20
2018-07-15T17:01:07.187Z,23.10
2018-07-15T17:03:35.475Z,23.10
2018-07-15T17:08:31.797Z,23.10
2018-07-15T17:11:00.182Z,23.00
2018-07-15T17:13:28.488Z,23.10
2018-07-15T17:15:56.742Z,23.10
2018-07-15T17:18:24.997Z,23.10
2018-07-15T17:20:53.264Z,23.20
2018-07-15T17:23:21.596Z,23.30
2018-07-15T17:25:49.880Z,23.30
2018-07-15T17:28:18.168Z,23.30
2018-07-15T17:30:46.462Z,23.30
2018-07-15T17:33:14.747Z,23.20
2018-07-15T17:35:42.995Z,23.20
2018-07-15T17:38:11.269Z,23.20
2018-07-15T17:40:39.662Z,23.20
2018-07-15T17:43:07.868Z,23.20
2018-07-15T17:45:36.133Z,23.20
2018-07-15T17:48:04.421Z,23.10
2018-07-15T17:50:32.729Z,23.10
2018-07-15T17:53:01.004Z,23.10
2018-07-15T17:55:29.287Z,23.10
2018-07-15T17:57:57.601Z,23.20
2018-07-15T18:00:25.867Z,23.20
2018-07-15T18:02:54.149Z,23.20
2018-07-15T18:07:50.524Z,23.30
2018-07-15T18:10:18.803Z,23.30
2018-07-15T18:12:47.097Z,23.30
2018-07-15T18:15:15.389Z,23.30
2018-07-15T18:17:43.687Z,23.20
2018-07-15T18:20:11.996Z,23.20
2018-07-15T18:22:40.324Z,23.20
2018-07-15T18:25:08.605Z,23.20
2018-07-15T18:27:36.877Z,23.20
2018-07-15T18:30:05.394Z,23.30
2018-07-15T18:32:33.711Z,23.30
2018-07-15T18:35:02.002Z,23.30
2018-07-15T18:37:30.507Z,23.30
2018-07-15T18:42:26.883Z,23.30
2018-07-15T18:44:55.254Z,23.30
2018-07-15T18:49:51.660Z,23.20
2018-07-15T18:52:20.067Z,23.20
2018-07-15T18:54:48.431Z,23.20
2018-07-15T18:57:16.807Z,23.20
2018-07-15T18:59:45.160Z,23.20
2018-07-15T19:02:13.552Z,23.30
2018-07-15T19:04:42.010Z,23.30
2018-07-15T19:07:10.411Z,23.30
2018-07-15T19:09:38.758Z,23.30
2018-07-15T19:12:07.191Z,23.20
2018-07-15T19:14:35.637Z,23.30
2018-07-15T19:17:03.978Z,23.20
2018-07-15T19:19:32.337Z,23.20
2018-07-15T19:22:00.685Z,23.20
2018-07-15T19:24:29.129Z,23.20
2018-07-15T19:26:57.444Z,23.30
2018-07-15T19:29:25.870Z,23.30
2018-07-15T19:31:54.275Z,23.30
2018-07-15T19:34:22.770Z,23.30
2018-07-15T19:36:51.156Z,23.30
2018-07-15T19:39:19.543Z,23.30
2018-07-15T19:41:48.012Z,23.30
2018-07-15T19:44:16.338Z,23.30
2018-07-15T19:46:44.758Z,23.30
2018-07-15T19:49:13.211Z,23.20
2018-07-15T19:51:41.600Z,23.20
2018-07-15T19:54:09.903Z,23.20
2018-07-15T19:56:38.277Z,23.20
2018-07-15T19:59:06.869Z,23.20
2018-07-15T20:01:35.296Z,23.20
2018-07-15T20:04:03.711Z,23.20
2018-07-15T20:06:32.068Z,23.20
2018-07-15T20:09:00.424Z,23.20
2018-07-15T20:13:57.996Z,23.30
2018-07-15T20:16:26.434Z,23.40
2018-07-15T20:18:55.199Z,23.40
2018-07-15T20:23:52.366Z,23.40
2018-07-15T20:26:20.995Z,23.40
2018-07-15T20:28:49.387Z,23.30
2018-07-15T20:31:18.036Z,23.30
2018-07-15T20:36:14.526Z,23.30
2018-07-15T20:38:42.837Z,23.30
2018-07-15T20:41:11.210Z,23.20
2018-07-15T20:43:39.538Z,23.20
2018-07-15T20:46:08.177Z,23.20
2018-07-15T20:48:36.629Z,23.20
2018-07-15T20:53:33.060Z,23.30
2018-07-15T20:56:01.545Z,23.30
2018-07-15T20:58:29.831Z,23.30
2018-07-15T21:00:58.144Z,23.30
2018-07-15T21:03:26.448Z,23.30
2018-07-15T21:05:54.710Z,23.30
2018-07-15T21:10:51.184Z,23.30
2018-07-15T21:13:19.486Z,23.20
2018-07-15T21:15:47.876Z,23.20
2018-07-15T21:18:18.408Z,23.20
2018-07-15T21:20:46.682Z,23.30
2018-07-15T21:23:15.006Z,23.30
2018-07-15T21:25:43.530Z,23.30
2018-07-15T21:28:11.952Z,23.40
2018-07-15T21:30:40.235Z,23.40
2018-07-15T21:33:08.574Z,23.30
2018-07-15T21:35:36.920Z,23.30
2018-07-15T21:38:05.343Z,23.30
2018-07-15T21:40:33.573Z,23.30
2018-07-15T21:43:01.861Z,23.20
2018-07-15T21:45:30.140Z,23.20
2018-07-15T21:47:58.856Z,23.20
2018-07-15T21:50:27.190Z,23.20
2018-07-15T21:52:55.620Z,23.20
2018-07-15T21:55:23.958Z,23.20
2018-07-15T21:57:52.555Z,23.20
2018-07-15T22:00:21.060Z,23.20
2018-07-15T22:02:49.351Z,23.20
2018-07-15T22:05:17.626Z,23.20
2018-07-15T22:07:58.722Z,23.30
2018-07-15T22:10:36.023Z,23.40
2018-07-15T22:13:04.326Z,23.40
2018-07-15T22:18:00.730Z,23.40
2018-07-15T22:22:57.829Z,23.30
2018-07-15T22:25:26.233Z,23.30
2018-07-15T22:27:55.312Z,23.30
2018-07-15T22:30:23.904Z,23.30
2018-07-15T22:32:52.268Z,23.20
2018-07-15T22:35:22.182Z,23.20
2018-07-15T22:37:50.596Z,23.20
2018-07-15T22:40:18.866Z,23.20
2018-07-15T22:42:47.820Z,23.20
2018-07-15T22:45:16.129Z,23.30
2018-07-15T22:47:44.480Z,23.40
2018-07-15T22:50:13.067Z,23.40
2018-07-15T22:52:41.351Z,23.40
2018-07-15T22:55:09.623Z,23.40
2018-07-15T22:57:37.912Z,23.40
2018-07-15T23:00:06.765Z,23.40
2018-07-15T23:02:35.096Z,23.30
2018-07-15T23:05:44.950Z,23.30
2018-07-15T23:08:13.352Z,23.30
2018-07-15T23:13:10.352Z,23.20
2018-07-15T23:15:39.144Z,23.20
2018-07-15T23:18:07.450Z,23.20
2018-07-15T23:23:05.404Z,23.20
2018-07-15T23:25:34.725Z,23.20
2018-07-15T23:28:03.723Z,23.30
2018-07-15T23:30:32.784Z,23.30
2018-07-15T23:33:01.513Z,23.30
2018-07-15T23:35:30.017Z,23.30
2018-07-15T23:37:58.323Z,23.30
2018-07-15T23:40:26.724Z,23.20
2018-07-15T23:42:55.861Z,23.20
2018-07-15T23:45:24.978Z,23.20
2018-07-15T23:47:53.765Z,23.20
2018-07-15T23:50:22.132Z,23.20
2018-07-15T23:52:50.477Z,23.20
2018-07-15T23:55:18.799Z,23.20
2018-07-15T23:57:47.080Z,23.30
